sensor_id;sensor_type;location;lat;lon;timestamp;P1;durP1;ratioP1;P2;durP2;ratioP2
37495;SDS011;23346;52.088;4.746;2023-11-21T00:02:13;23.27;;;22.30;;
37495;SDS011;23346;52.088;4.746;2023-11-21T00:04:39;23.50;;;22.50;;
37495;SDS011;23346;52.088;4.746;2023-11-21T00:07:05;22.80;;;21.90;;
37495;SDS011;23346;52.088;4.746;2023-11-21T00:09:32;23.87;;;22.87;;
37495;SDS011;23346;52.088;4.746;2023-11-21T00:11:58;23.60;;;22.60;;
37495;SDS011;23346;52.088;4.746;2023-11-21T00:14:27;22.73;;;21.83;;
37495;SDS011;23346;52.088;4.746;2023-11-21T00:16:53;23.07;;;22.13;;
37495;SDS011;23346;52.088;4.746;2023-11-21T00:19:19;23.70;;;22.70;;
37495;SDS011;23346;52.088;4.746;2023-11-21T00:21:45;24.53;;;23.53;;
37495;SDS011;23346;52.088;4.746;2023-11-21T00:24:11;22.83;;;21.93;;
37495;SDS011;23346;52.088;4.746;2023-11-21T00:26:39;22.57;;;21.67;;
37495;SDS011;23346;52.088;4.746;2023-11-21T00:29:05;20.73;;;19.93;;
37495;SDS011;23346;52.088;4.746;2023-11-21T00:31:33;18.03;;;17.33;;
37495;SDS011;23346;52.088;4.746;2023-11-21T00:33:59;20.43;;;19.63;;
37495;SDS011;23346;52.088;4.746;2023-11-21T00:36:25;19.43;;;18.63;;
37495;SDS011;23346;52.088;4.746;2023-11-21T00:38:51;17.87;;;17.17;;
37495;SDS011;23346;52.088;4.746;2023-11-21T00:41:17;18.37;;;17.67;;
37495;SDS011;23346;52.088;4.746;2023-11-21T00:43:43;17.50;;;16.80;;
37495;SDS011;23346;52.088;4.746;2023-11-21T00:46:09;18.00;;;17.30;;
37495;SDS011;23346;52.088;4.746;2023-11-21T00:48:35;17.63;;;16.93;;
37495;SDS011;23346;52.088;4.746;2023-11-21T00:51:01;20.17;;;19.37;;
37495;SDS011;23346;52.088;4.746;2023-11-21T00:53:27;18.53;;;17.80;;
37495;SDS011;23346;52.088;4.746;2023-11-21T00:55:52;19.97;;;19.17;;
37495;SDS011;23346;52.088;4.746;2023-11-21T00:58:22;16.27;;;15.67;;
37495;SDS011;23346;52.088;4.746;2023-11-21T01:00:48;16.20;;;15.60;;
37495;SDS011;23346;52.088;4.746;2023-11-21T01:03:14;15.10;;;14.50;;
37495;SDS011;23346;52.088;4.746;2023-11-21T01:05:40;17.83;;;17.13;;
37495;SDS011;23346;52.088;4.746;2023-11-21T01:08:06;17.87;;;17.17;;
37495;SDS011;23346;52.088;4.746;2023-11-21T01:10:32;15.53;;;14.93;;
37495;SDS011;23346;52.088;4.746;2023-11-21T01:12:59;15.10;;;14.50;;
37495;SDS011;23346;52.088;4.746;2023-11-21T01:15:25;14.93;;;14.33;;
37495;SDS011;23346;52.088;4.746;2023-11-21T01:17:51;15.70;;;15.10;;
37495;SDS011;23346;52.088;4.746;2023-11-21T01:20:17;13.83;;;13.33;;
37495;SDS011;23346;52.088;4.746;2023-11-21T01:22:43;14.37;;;13.80;;
37495;SDS011;23346;52.088;4.746;2023-11-21T01:25:09;13.37;;;12.87;;
37495;SDS011;23346;52.088;4.746;2023-11-21T01:27:35;13.27;;;12.77;;
37495;SDS011;23346;52.088;4.746;2023-11-21T01:30:02;13.50;;;13.00;;
37495;SDS011;23346;52.088;4.746;2023-11-21T01:32:29;14.20;;;13.63;;
37495;SDS011;23346;52.088;4.746;2023-11-21T01:34:55;12.10;;;11.60;;
37495;SDS011;23346;52.088;4.746;2023-11-21T01:37:21;12.23;;;11.73;;
37495;SDS011;23346;52.088;4.746;2023-11-21T01:39:47;13.67;;;13.17;;
37495;SDS011;23346;52.088;4.746;2023-11-21T01:42:13;14.60;;;14.00;;
37495;SDS011;23346;52.088;4.746;2023-11-21T01:44:39;14.30;;;13.70;;
37495;SDS011;23346;52.088;4.746;2023-11-21T01:47:05;13.67;;;13.17;;
37495;SDS011;23346;52.088;4.746;2023-11-21T01:49:32;13.37;;;12.87;;
37495;SDS011;23346;52.088;4.746;2023-11-21T01:51:58;13.70;;;13.20;;
37495;SDS011;23346;52.088;4.746;2023-11-21T01:54:24;14.00;;;13.50;;
37495;SDS011;23346;52.088;4.746;2023-11-21T01:56:50;14.73;;;14.13;;
37495;SDS011;23346;52.088;4.746;2023-11-21T01:59:20;15.03;;;14.43;;
37495;SDS011;23346;52.088;4.746;2023-11-21T02:01:46;14.27;;;13.67;;
37495;SDS011;23346;52.088;4.746;2023-11-21T02:04:13;14.70;;;14.10;;
37495;SDS011;23346;52.088;4.746;2023-11-21T02:06:39;14.63;;;14.03;;
37495;SDS011;23346;52.088;4.746;2023-11-21T02:09:05;15.70;;;15.10;;
37495;SDS011;23346;52.088;4.746;2023-11-21T02:11:31;14.40;;;13.80;;
37495;SDS011;23346;52.088;4.746;2023-11-21T02:13:59;13.50;;;13.00;;
37495;SDS011;23346;52.088;4.746;2023-11-21T02:16:26;14.67;;;14.07;;
37495;SDS011;23346;52.088;4.746;2023-11-21T02:18:52;16.80;;;16.10;;
37495;SDS011;23346;52.088;4.746;2023-11-21T02:21:18;15.67;;;15.07;;
37495;SDS011;23346;52.088;4.746;2023-11-21T02:23:44;15.43;;;14.83;;
37495;SDS011;23346;52.088;4.746;2023-11-21T02:26:11;14.50;;;13.90;;
37495;SDS011;23346;52.088;4.746;2023-11-21T02:28:38;16.13;;;15.53;;
37495;SDS011;23346;52.088;4.746;2023-11-21T02:31:05;14.80;;;14.20;;
37495;SDS011;23346;52.088;4.746;2023-11-21T02:33:32;14.30;;;13.73;;
37495;SDS011;23346;52.088;4.746;2023-11-21T02:35:59;15.07;;;14.47;;
37495;SDS011;23346;52.088;4.746;2023-11-21T02:38:25;14.40;;;13.80;;
37495;SDS011;23346;52.088;4.746;2023-11-21T02:40:51;15.40;;;14.80;;
37495;SDS011;23346;52.088;4.746;2023-11-21T02:43:18;17.77;;;17.07;;
37495;SDS011;23346;52.088;4.746;2023-11-21T02:45:44;15.43;;;14.83;;
37495;SDS011;23346;52.088;4.746;2023-11-21T02:48:10;15.87;;;15.27;;
37495;SDS011;23346;52.088;4.746;2023-11-21T02:50:36;14.10;;;13.53;;
37495;SDS011;23346;52.088;4.746;2023-11-21T02:53:02;15.20;;;14.60;;
37495;SDS011;23346;52.088;4.746;2023-11-21T02:55:30;15.43;;;14.83;;
37495;SDS011;23346;52.088;4.746;2023-11-21T02:57:59;15.10;;;14.50;;
37495;SDS011;23346;52.088;4.746;2023-11-21T03:00:25;14.10;;;13.57;;
37495;SDS011;23346;52.088;4.746;2023-11-21T03:02:51;14.03;;;13.53;;
37495;SDS011;23346;52.088;4.746;2023-11-21T03:05:18;13.57;;;13.07;;
37495;SDS011;23346;52.088;4.746;2023-11-21T03:07:44;15.57;;;14.97;;
37495;SDS011;23346;52.088;4.746;2023-11-21T03:10:10;15.30;;;14.70;;
37495;SDS011;23346;52.088;4.746;2023-11-21T03:12:39;14.47;;;13.87;;
37495;SDS011;23346;52.088;4.746;2023-11-21T03:15:06;14.03;;;13.50;;
37495;SDS011;23346;52.088;4.746;2023-11-21T03:17:32;15.40;;;14.80;;
37495;SDS011;23346;52.088;4.746;2023-11-21T03:20:01;13.20;;;12.70;;
37495;SDS011;23346;52.088;4.746;2023-11-21T03:22:29;14.07;;;13.53;;
37495;SDS011;23346;52.088;4.746;2023-11-21T03:24:55;12.50;;;12.00;;
37495;SDS011;23346;52.088;4.746;2023-11-21T03:27:21;14.37;;;13.77;;
37495;SDS011;23346;52.088;4.746;2023-11-21T03:29:48;13.60;;;13.10;;
37495;SDS011;23346;52.088;4.746;2023-11-21T03:32:14;14.60;;;14.00;;
37495;SDS011;23346;52.088;4.746;2023-11-21T03:34:53;14.73;;;14.13;;
37495;SDS011;23346;52.088;4.746;2023-11-21T03:37:21;15.43;;;14.83;;
37495;SDS011;23346;52.088;4.746;2023-11-21T03:39:47;14.63;;;14.03;;
37495;SDS011;23346;52.088;4.746;2023-11-21T03:42:13;13.10;;;12.60;;
37495;SDS011;23346;52.088;4.746;2023-11-21T03:44:39;13.73;;;13.23;;
37495;SDS011;23346;52.088;4.746;2023-11-21T03:47:05;14.60;;;14.00;;
37495;SDS011;23346;52.088;4.746;2023-11-21T03:49:31;12.97;;;12.47;;
37495;SDS011;23346;52.088;4.746;2023-11-21T03:51:57;15.07;;;14.47;;
37495;SDS011;23346;52.088;4.746;2023-11-21T03:54:23;15.13;;;14.53;;
37495;SDS011;23346;52.088;4.746;2023-11-21T03:56:48;13.73;;;13.23;;
37495;SDS011;23346;52.088;4.746;2023-11-21T03:59:14;12.63;;;12.13;;
37495;SDS011;23346;52.088;4.746;2023-11-21T04:01:40;13.60;;;13.10;;
37495;SDS011;23346;52.088;4.746;2023-11-21T04:04:06;12.47;;;11.97;;
37495;SDS011;23346;52.088;4.746;2023-11-21T04:06:32;14.03;;;13.53;;
37495;SDS011;23346;52.088;4.746;2023-11-21T04:08:58;14.33;;;13.73;;
37495;SDS011;23346;52.088;4.746;2023-11-21T04:11:24;13.33;;;12.83;;
37495;SDS011;23346;52.088;4.746;2023-11-21T04:13:50;13.70;;;13.20;;
37495;SDS011;23346;52.088;4.746;2023-11-21T04:16:16;14.53;;;13.93;;
37495;SDS011;23346;52.088;4.746;2023-11-21T04:18:43;14.40;;;13.80;;
37495;SDS011;23346;52.088;4.746;2023-11-21T04:21:09;14.03;;;13.53;;
37495;SDS011;23346;52.088;4.746;2023-11-21T04:23:35;13.27;;;12.77;;
37495;SDS011;23346;52.088;4.746;2023-11-21T04:26:01;13.03;;;12.53;;
37495;SDS011;23346;52.088;4.746;2023-11-21T04:28:27;12.77;;;12.27;;
37495;SDS011;23346;52.088;4.746;2023-11-21T04:30:53;13.47;;;12.97;;
37495;SDS011;23346;52.088;4.746;2023-11-21T04:33:19;12.20;;;11.70;;
37495;SDS011;23346;52.088;4.746;2023-11-21T04:35:46;13.77;;;13.27;;
37495;SDS011;23346;52.088;4.746;2023-11-21T04:38:13;13.70;;;13.20;;
37495;SDS011;23346;52.088;4.746;2023-11-21T04:40:39;13.80;;;13.30;;
37495;SDS011;23346;52.088;4.746;2023-11-21T04:43:05;13.83;;;13.33;;
37495;SDS011;23346;52.088;4.746;2023-11-21T04:45:31;13.40;;;12.90;;
37495;SDS011;23346;52.088;4.746;2023-11-21T04:47:57;13.83;;;13.33;;
37495;SDS011;23346;52.088;4.746;2023-11-21T04:50:23;14.57;;;13.97;;
37495;SDS011;23346;52.088;4.746;2023-11-21T04:52:52;14.60;;;14.00;;
37495;SDS011;23346;52.088;4.746;2023-11-21T04:55:18;14.57;;;13.97;;
37495;SDS011;23346;52.088;4.746;2023-11-21T04:57:44;13.20;;;12.70;;
37495;SDS011;23346;52.088;4.746;2023-11-21T05:00:12;15.67;;;15.07;;
37495;SDS011;23346;52.088;4.746;2023-11-21T05:02:38;16.13;;;15.53;;
37495;SDS011;23346;52.088;4.746;2023-11-21T05:05:04;14.83;;;14.23;;
37495;SDS011;23346;52.088;4.746;2023-11-21T05:07:31;14.90;;;14.30;;
37495;SDS011;23346;52.088;4.746;2023-11-21T05:09:57;15.83;;;15.23;;
37495;SDS011;23346;52.088;4.746;2023-11-21T05:12:23;17.73;;;17.03;;
37495;SDS011;23346;52.088;4.746;2023-11-21T05:14:50;18.63;;;17.90;;
37495;SDS011;23346;52.088;4.746;2023-11-21T05:17:16;17.57;;;16.87;;
37495;SDS011;23346;52.088;4.746;2023-11-21T05:19:42;19.27;;;18.47;;
37495;SDS011;23346;52.088;4.746;2023-11-21T05:22:10;20.13;;;19.33;;
37495;SDS011;23346;52.088;4.746;2023-11-21T05:24:37;22.23;;;21.33;;
37495;SDS011;23346;52.088;4.746;2023-11-21T05:27:04;22.17;;;21.27;;
37495;SDS011;23346;52.088;4.746;2023-11-21T05:29:30;21.63;;;20.73;;
37495;SDS011;23346;52.088;4.746;2023-11-21T05:31:56;20.10;;;19.30;;
37495;SDS011;23346;52.088;4.746;2023-11-21T05:34:22;22.57;;;21.67;;
37495;SDS011;23346;52.088;4.746;2023-11-21T05:36:49;21.30;;;20.40;;
37495;SDS011;23346;52.088;4.746;2023-11-21T05:39:15;18.97;;;18.17;;
37495;SDS011;23346;52.088;4.746;2023-11-21T05:41:42;20.43;;;19.63;;
37495;SDS011;23346;52.088;4.746;2023-11-21T05:44:08;20.90;;;20.07;;
37495;SDS011;23346;52.088;4.746;2023-11-21T05:46:34;24.30;;;23.30;;
37495;SDS011;23346;52.088;4.746;2023-11-21T05:49:00;22.80;;;21.90;;
37495;SDS011;23346;52.088;4.746;2023-11-21T05:51:26;20.07;;;19.27;;
37495;SDS011;23346;52.088;4.746;2023-11-21T05:53:52;22.90;;;22.00;;
37495;SDS011;23346;52.088;4.746;2023-11-21T05:56:19;22.80;;;21.90;;
37495;SDS011;23346;52.088;4.746;2023-11-21T05:58:45;21.03;;;20.17;;
37495;SDS011;23346;52.088;4.746;2023-11-21T06:01:11;21.27;;;20.37;;
37495;SDS011;23346;52.088;4.746;2023-11-21T06:03:38;19.77;;;18.97;;
37495;SDS011;23346;52.088;4.746;2023-11-21T06:06:04;20.53;;;19.73;;
37495;SDS011;23346;52.088;4.746;2023-11-21T06:08:30;17.50;;;16.80;;
37495;SDS011;23346;52.088;4.746;2023-11-21T06:10:56;16.87;;;16.17;;
37495;SDS011;23346;52.088;4.746;2023-11-21T06:13:22;17.67;;;16.97;;
37495;SDS011;23346;52.088;4.746;2023-11-21T06:15:50;16.67;;;15.97;;
37495;SDS011;23346;52.088;4.746;2023-11-21T06:18:16;17.90;;;17.20;;
37495;SDS011;23346;52.088;4.746;2023-11-21T06:20:44;18.47;;;17.77;;
37495;SDS011;23346;52.088;4.746;2023-11-21T06:23:10;15.50;;;14.90;;
37495;SDS011;23346;52.088;4.746;2023-11-21T06:25:36;16.73;;;16.03;;
37495;SDS011;23346;52.088;4.746;2023-11-21T06:28:03;17.17;;;16.47;;
37495;SDS011;23346;52.088;4.746;2023-11-21T06:30:29;19.80;;;19.00;;
37495;SDS011;23346;52.088;4.746;2023-11-21T06:32:55;17.43;;;16.73;;
37495;SDS011;23346;52.088;4.746;2023-11-21T06:35:21;18.23;;;17.53;;
37495;SDS011;23346;52.088;4.746;2023-11-21T06:37:47;15.73;;;15.13;;
37495;SDS011;23346;52.088;4.746;2023-11-21T06:40:13;15.50;;;14.90;;
37495;SDS011;23346;52.088;4.746;2023-11-21T06:42:40;17.33;;;16.63;;
37495;SDS011;23346;52.088;4.746;2023-11-21T06:45:06;16.17;;;15.57;;
37495;SDS011;23346;52.088;4.746;2023-11-21T06:47:32;14.57;;;13.97;;
37495;SDS011;23346;52.088;4.746;2023-11-21T06:49:59;15.23;;;14.63;;
37495;SDS011;23346;52.088;4.746;2023-11-21T06:52:25;14.97;;;14.37;;
37495;SDS011;23346;52.088;4.746;2023-11-21T06:54:51;14.43;;;13.83;;
37495;SDS011;23346;52.088;4.746;2023-11-21T06:57:17;17.60;;;16.90;;
37495;SDS011;23346;52.088;4.746;2023-11-21T06:59:44;17.30;;;16.60;;
37495;SDS011;23346;52.088;4.746;2023-11-21T07:02:10;14.97;;;14.37;;
37495;SDS011;23346;52.088;4.746;2023-11-21T07:04:36;14.63;;;14.03;;
37495;SDS011;23346;52.088;4.746;2023-11-21T07:07:02;16.30;;;15.70;;
37495;SDS011;23346;52.088;4.746;2023-11-21T07:09:28;14.93;;;14.33;;
37495;SDS011;23346;52.088;4.746;2023-11-21T07:11:54;16.03;;;15.43;;
37495;SDS011;23346;52.088;4.746;2023-11-21T07:14:21;14.70;;;14.10;;
37495;SDS011;23346;52.088;4.746;2023-11-21T07:16:47;14.37;;;13.77;;
37495;SDS011;23346;52.088;4.746;2023-11-21T07:19:13;14.53;;;13.93;;
37495;SDS011;23346;52.088;4.746;2023-11-21T07:21:39;15.00;;;14.40;;
37495;SDS011;23346;52.088;4.746;2023-11-21T07:24:06;14.80;;;14.20;;
37495;SDS011;23346;52.088;4.746;2023-11-21T07:26:33;14.80;;;14.20;;
37495;SDS011;23346;52.088;4.746;2023-11-21T07:28:59;15.77;;;15.17;;
37495;SDS011;23346;52.088;4.746;2023-11-21T07:31:25;15.10;;;14.50;;
37495;SDS011;23346;52.088;4.746;2023-11-21T07:33:51;13.73;;;13.23;;
37495;SDS011;23346;52.088;4.746;2023-11-21T07:36:18;16.07;;;15.47;;
37495;SDS011;23346;52.088;4.746;2023-11-21T07:38:47;15.87;;;15.27;;
37495;SDS011;23346;52.088;4.746;2023-11-21T07:41:13;16.03;;;15.43;;
37495;SDS011;23346;52.088;4.746;2023-11-21T07:43:43;15.03;;;14.43;;
37495;SDS011;23346;52.088;4.746;2023-11-21T07:46:09;15.83;;;15.23;;
37495;SDS011;23346;52.088;4.746;2023-11-21T07:48:37;15.70;;;15.10;;
37495;SDS011;23346;52.088;4.746;2023-11-21T07:51:03;13.47;;;12.97;;
37495;SDS011;23346;52.088;4.746;2023-11-21T07:53:29;15.43;;;14.83;;
37495;SDS011;23346;52.088;4.746;2023-11-21T07:55:55;15.23;;;14.63;;
37495;SDS011;23346;52.088;4.746;2023-11-21T07:58:22;15.27;;;14.67;;
37495;SDS011;23346;52.088;4.746;2023-11-21T08:00:48;13.27;;;12.77;;
37495;SDS011;23346;52.088;4.746;2023-11-21T08:03:14;13.57;;;13.07;;
37495;SDS011;23346;52.088;4.746;2023-11-21T08:05:41;14.77;;;14.17;;
37495;SDS011;23346;52.088;4.746;2023-11-21T08:08:06;14.77;;;14.17;;
37495;SDS011;23346;52.088;4.746;2023-11-21T08:10:33;12.83;;;12.33;;
37495;SDS011;23346;52.088;4.746;2023-11-21T08:13:00;13.27;;;12.77;;
37495;SDS011;23346;52.088;4.746;2023-11-21T08:15:26;13.90;;;13.40;;
37495;SDS011;23346;52.088;4.746;2023-11-21T08:17:52;14.83;;;14.23;;
37495;SDS011;23346;52.088;4.746;2023-11-21T08:20:18;13.23;;;12.73;;
37495;SDS011;23346;52.088;4.746;2023-11-21T08:22:44;14.00;;;13.47;;
37495;SDS011;23346;52.088;4.746;2023-11-21T08:25:12;12.33;;;11.83;;
37495;SDS011;23346;52.088;4.746;2023-11-21T08:27:38;11.87;;;11.43;;
37495;SDS011;23346;52.088;4.746;2023-11-21T08:30:04;14.00;;;13.50;;
37495;SDS011;23346;52.088;4.746;2023-11-21T08:32:31;13.00;;;12.50;;
37495;SDS011;23346;52.088;4.746;2023-11-21T08:34:58;13.00;;;12.50;;
37495;SDS011;23346;52.088;4.746;2023-11-21T08:37:24;12.57;;;12.07;;
37495;SDS011;23346;52.088;4.746;2023-11-21T08:39:52;12.93;;;12.43;;
37495;SDS011;23346;52.088;4.746;2023-11-21T08:42:18;13.20;;;12.70;;
37495;SDS011;23346;52.088;4.746;2023-11-21T08:44:44;12.53;;;12.03;;
37495;SDS011;23346;52.088;4.746;2023-11-21T08:47:10;11.93;;;11.47;;
37495;SDS011;23346;52.088;4.746;2023-11-21T08:49:37;11.53;;;11.13;;
37495;SDS011;23346;52.088;4.746;2023-11-21T08:52:03;12.47;;;11.97;;
37495;SDS011;23346;52.088;4.746;2023-11-21T08:54:30;11.37;;;10.97;;
37495;SDS011;23346;52.088;4.746;2023-11-21T08:56:56;12.47;;;11.97;;
37495;SDS011;23346;52.088;4.746;2023-11-21T08:59:23;12.10;;;11.60;;
37495;SDS011;23346;52.088;4.746;2023-11-21T09:01:49;11.90;;;11.43;;
37495;SDS011;23346;52.088;4.746;2023-11-21T09:04:15;11.87;;;11.43;;
37495;SDS011;23346;52.088;4.746;2023-11-21T09:06:41;11.77;;;11.33;;
37495;SDS011;23346;52.088;4.746;2023-11-21T09:09:07;11.23;;;10.83;;
37495;SDS011;23346;52.088;4.746;2023-11-21T09:11:35;12.33;;;11.83;;
37495;SDS011;23346;52.088;4.746;2023-11-21T09:14:01;11.80;;;11.37;;
37495;SDS011;23346;52.088;4.746;2023-11-21T09:16:27;13.30;;;12.80;;
37495;SDS011;23346;52.088;4.746;2023-11-21T09:18:53;12.13;;;11.63;;
37495;SDS011;23346;52.088;4.746;2023-11-21T09:21:19;12.07;;;11.57;;
37495;SDS011;23346;52.088;4.746;2023-11-21T09:23:45;11.00;;;10.60;;
37495;SDS011;23346;52.088;4.746;2023-11-21T09:26:11;13.67;;;13.17;;
37495;SDS011;23346;52.088;4.746;2023-11-21T09:28:37;15.23;;;14.63;;
37495;SDS011;23346;52.088;4.746;2023-11-21T09:31:04;17.37;;;16.67;;
37495;SDS011;23346;52.088;4.746;2023-11-21T09:33:34;16.17;;;15.57;;
37495;SDS011;23346;52.088;4.746;2023-11-21T09:36:00;17.27;;;16.57;;
37495;SDS011;23346;52.088;4.746;2023-11-21T09:38:26;16.63;;;15.93;;
37495;SDS011;23346;52.088;4.746;2023-11-21T09:40:53;16.60;;;15.90;;
37495;SDS011;23346;52.088;4.746;2023-11-21T09:43:20;17.53;;;16.83;;
37495;SDS011;23346;52.088;4.746;2023-11-21T09:45:48;15.47;;;14.87;;
37495;SDS011;23346;52.088;4.746;2023-11-21T09:48:15;16.90;;;16.20;;
37495;SDS011;23346;52.088;4.746;2023-11-21T09:50:42;17.53;;;16.83;;
37495;SDS011;23346;52.088;4.746;2023-11-21T09:55:42;16.67;;;15.97;;
37495;SDS011;23346;52.088;4.746;2023-11-21T09:58:09;15.20;;;14.60;;
37495;SDS011;23346;52.088;4.746;2023-11-21T10:00:37;16.67;;;15.97;;
37495;SDS011;23346;52.088;4.746;2023-11-21T10:03:05;15.13;;;14.53;;
37495;SDS011;23346;52.088;4.746;2023-11-21T10:05:31;18.17;;;17.47;;
37495;SDS011;23346;52.088;4.746;2023-11-21T10:07:59;17.20;;;16.50;;
37495;SDS011;23346;52.088;4.746;2023-11-21T10:10:26;17.60;;;16.90;;
37495;SDS011;23346;52.088;4.746;2023-11-21T10:12:55;17.73;;;17.03;;
37495;SDS011;23346;52.088;4.746;2023-11-21T10:15:21;16.13;;;15.53;;
37495;SDS011;23346;52.088;4.746;2023-11-21T10:17:48;14.60;;;14.00;;
37495;SDS011;23346;52.088;4.746;2023-11-21T10:20:14;15.70;;;15.10;;
37495;SDS011;23346;52.088;4.746;2023-11-21T10:22:41;17.03;;;16.33;;
37495;SDS011;23346;52.088;4.746;2023-11-21T10:25:07;17.13;;;16.43;;
37495;SDS011;23346;52.088;4.746;2023-11-21T10:27:34;16.80;;;16.10;;
37495;SDS011;23346;52.088;4.746;2023-11-21T10:30:01;17.03;;;16.33;;
37495;SDS011;23346;52.088;4.746;2023-11-21T10:32:28;17.63;;;16.93;;
37495;SDS011;23346;52.088;4.746;2023-11-21T10:34:57;18.30;;;17.60;;
37495;SDS011;23346;52.088;4.746;2023-11-21T10:37:25;17.83;;;17.13;;
37495;SDS011;23346;52.088;4.746;2023-11-21T10:39:56;16.87;;;16.17;;
37495;SDS011;23346;52.088;4.746;2023-11-21T10:42:23;17.90;;;17.20;;
37495;SDS011;23346;52.088;4.746;2023-11-21T10:44:49;19.90;;;19.10;;
37495;SDS011;23346;52.088;4.746;2023-11-21T10:47:15;19.17;;;18.37;;
37495;SDS011;23346;52.088;4.746;2023-11-21T10:49:44;17.73;;;17.03;;
37495;SDS011;23346;52.088;4.746;2023-11-21T10:52:12;17.00;;;16.30;;
37495;SDS011;23346;52.088;4.746;2023-11-21T10:54:42;17.67;;;16.97;;
37495;SDS011;23346;52.088;4.746;2023-11-21T10:57:08;18.37;;;17.67;;
37495;SDS011;23346;52.088;4.746;2023-11-21T10:59:35;18.63;;;17.93;;
37495;SDS011;23346;52.088;4.746;2023-11-21T11:02:02;17.43;;;16.73;;
37495;SDS011;23346;52.088;4.746;2023-11-21T11:04:31;17.30;;;16.60;;
37495;SDS011;23346;52.088;4.746;2023-11-21T11:06:57;16.60;;;15.90;;
37495;SDS011;23346;52.088;4.746;2023-11-21T11:09:28;16.23;;;15.63;;
37495;SDS011;23346;52.088;4.746;2023-11-21T11:11:54;17.77;;;17.07;;
37495;SDS011;23346;52.088;4.746;2023-11-21T11:14:20;19.47;;;18.67;;
37495;SDS011;23346;52.088;4.746;2023-11-21T11:16:50;19.83;;;19.03;;
37495;SDS011;23346;52.088;4.746;2023-11-21T11:19:16;18.17;;;17.47;;
37495;SDS011;23346;52.088;4.746;2023-11-21T11:24:32;20.17;;;19.37;;
37495;SDS011;23346;52.088;4.746;2023-11-21T11:29:50;17.83;;;17.13;;
37495;SDS011;23346;52.088;4.746;2023-11-21T11:32:36;17.50;;;16.80;;
37495;SDS011;23346;52.088;4.746;2023-11-21T11:35:10;19.10;;;18.30;;
37495;SDS011;23346;52.088;4.746;2023-11-21T11:37:41;19.77;;;18.97;;
37495;SDS011;23346;52.088;4.746;2023-11-21T11:40:07;19.13;;;18.33;;
37495;SDS011;23346;52.088;4.746;2023-11-21T11:42:34;18.67;;;17.93;;
37495;SDS011;23346;52.088;4.746;2023-11-21T11:45:00;18.43;;;17.73;;
37495;SDS011;23346;52.088;4.746;2023-11-21T11:47:30;18.27;;;17.57;;
37495;SDS011;23346;52.088;4.746;2023-11-21T11:50:06;16.40;;;15.77;;
37495;SDS011;23346;52.088;4.746;2023-11-21T11:52:33;19.83;;;19.03;;
37495;SDS011;23346;52.088;4.746;2023-11-21T11:55:00;18.33;;;17.63;;
37495;SDS011;23346;52.088;4.746;2023-11-21T11:57:26;18.83;;;18.03;;
37495;SDS011;23346;52.088;4.746;2023-11-21T12:02:53;20.03;;;19.23;;
37495;SDS011;23346;52.088;4.746;2023-11-21T12:05:19;16.00;;;15.40;;
37495;SDS011;23346;52.088;4.746;2023-11-21T12:07:47;18.43;;;17.73;;
37495;SDS011;23346;52.088;4.746;2023-11-21T12:10:14;19.17;;;18.37;;
37495;SDS011;23346;52.088;4.746;2023-11-21T12:12:43;18.87;;;18.10;;
37495;SDS011;23346;52.088;4.746;2023-11-21T12:15:10;20.70;;;19.90;;
37495;SDS011;23346;52.088;4.746;2023-11-21T12:17:37;20.33;;;19.53;;
37495;SDS011;23346;52.088;4.746;2023-11-21T12:20:04;19.83;;;19.03;;
37495;SDS011;23346;52.088;4.746;2023-11-21T12:22:32;18.90;;;18.10;;
37495;SDS011;23346;52.088;4.746;2023-11-21T12:24:58;18.87;;;18.10;;
37495;SDS011;23346;52.088;4.746;2023-11-21T12:27:24;19.03;;;18.23;;
37495;SDS011;23346;52.088;4.746;2023-11-21T12:29:50;18.33;;;17.63;;
37495;SDS011;23346;52.088;4.746;2023-11-21T12:32:16;18.53;;;17.83;;
37495;SDS011;23346;52.088;4.746;2023-11-21T12:34:43;19.57;;;18.77;;
37495;SDS011;23346;52.088;4.746;2023-11-21T12:37:09;19.20;;;18.40;;
37495;SDS011;23346;52.088;4.746;2023-11-21T12:39:35;17.73;;;17.03;;
37495;SDS011;23346;52.088;4.746;2023-11-21T12:42:01;19.80;;;19.00;;
37495;SDS011;23346;52.088;4.746;2023-11-21T12:44:27;18.37;;;17.67;;
37495;SDS011;23346;52.088;4.746;2023-11-21T12:46:54;17.90;;;17.20;;
37495;SDS011;23346;52.088;4.746;2023-11-21T12:49:20;18.10;;;17.40;;
37495;SDS011;23346;52.088;4.746;2023-11-21T12:51:47;17.83;;;17.13;;
37495;SDS011;23346;52.088;4.746;2023-11-21T12:54:13;19.23;;;18.43;;
37495;SDS011;23346;52.088;4.746;2023-11-21T12:56:39;17.90;;;17.20;;
37495;SDS011;23346;52.088;4.746;2023-11-21T12:59:05;19.67;;;18.87;;
37495;SDS011;23346;52.088;4.746;2023-11-21T13:01:31;19.50;;;18.70;;
37495;SDS011;23346;52.088;4.746;2023-11-21T13:03:57;18.67;;;17.93;;
37495;SDS011;23346;52.088;4.746;2023-11-21T13:06:23;20.00;;;19.20;;
37495;SDS011;23346;52.088;4.746;2023-11-21T13:08:51;19.63;;;18.83;;
37495;SDS011;23346;52.088;4.746;2023-11-21T13:11:17;21.43;;;20.53;;
37495;SDS011;23346;52.088;4.746;2023-11-21T13:13:43;21.70;;;20.80;;
37495;SDS011;23346;52.088;4.746;2023-11-21T13:16:10;19.20;;;18.40;;
37495;SDS011;23346;52.088;4.746;2023-11-21T13:18:36;18.80;;;18.03;;
37495;SDS011;23346;52.088;4.746;2023-11-21T13:21:07;19.20;;;18.40;;
37495;SDS011;23346;52.088;4.746;2023-11-21T13:23:38;20.53;;;19.73;;
37495;SDS011;23346;52.088;4.746;2023-11-21T13:26:06;18.93;;;18.13;;
37495;SDS011;23346;52.088;4.746;2023-11-21T13:28:33;18.97;;;18.17;;
37495;SDS011;23346;52.088;4.746;2023-11-21T13:31:00;18.80;;;18.03;;
37495;SDS011;23346;52.088;4.746;2023-11-21T13:33:28;20.57;;;19.77;;
37495;SDS011;23346;52.088;4.746;2023-11-21T13:35:54;20.80;;;20.00;;
37495;SDS011;23346;52.088;4.746;2023-11-21T13:38:21;20.10;;;19.30;;
37495;SDS011;23346;52.088;4.746;2023-11-21T13:40:55;20.93;;;20.10;;
37495;SDS011;23346;52.088;4.746;2023-11-21T13:43:23;20.17;;;19.37;;
37495;SDS011;23346;52.088;4.746;2023-11-21T13:45:50;19.83;;;19.03;;
37495;SDS011;23346;52.088;4.746;2023-11-21T13:48:23;18.60;;;17.87;;
37495;SDS011;23346;52.088;4.746;2023-11-21T13:51:05;23.07;;;22.13;;
37495;SDS011;23346;52.088;4.746;2023-11-21T13:53:42;25.80;;;24.60;;
37495;SDS011;23346;52.088;4.746;2023-11-21T13:56:09;23.03;;;22.13;;
37495;SDS011;23346;52.088;4.746;2023-11-21T13:58:36;23.43;;;22.43;;
37495;SDS011;23346;52.088;4.746;2023-11-21T14:01:17;22.27;;;21.37;;
37495;SDS011;23346;52.088;4.746;2023-11-21T14:04:03;24.60;;;23.60;;
37495;SDS011;23346;52.088;4.746;2023-11-21T14:06:50;21.87;;;20.97;;
37495;SDS011;23346;52.088;4.746;2023-11-21T14:09:20;21.90;;;21.00;;
37495;SDS011;23346;52.088;4.746;2023-11-21T14:11:50;22.43;;;21.53;;
37495;SDS011;23346;52.088;4.746;2023-11-21T14:14:21;23.00;;;22.10;;
37495;SDS011;23346;52.088;4.746;2023-11-21T14:16:47;22.73;;;21.83;;
37495;SDS011;23346;52.088;4.746;2023-11-21T14:19:13;24.00;;;23.00;;
37495;SDS011;23346;52.088;4.746;2023-11-21T14:21:42;23.97;;;22.97;;
37495;SDS011;23346;52.088;4.746;2023-11-21T14:24:09;24.73;;;23.73;;
37495;SDS011;23346;52.088;4.746;2023-11-21T14:26:35;25.93;;;24.83;;
37495;SDS011;23346;52.088;4.746;2023-11-21T14:29:01;25.37;;;24.33;;
37495;SDS011;23346;52.088;4.746;2023-11-21T14:31:28;24.37;;;23.37;;